Time;durP1;ratioP1;P1;durP2;ratioP2;P2;SDS_P1;SDS_P2;PMS_P1;PMS_P2;Temp;Humidity;BMP_temperature;BMP_pressure;BME280_temperature;BME280_humidity;BME280_pressure;Samples;Min_cycle;Max_cycle;Signal;HPM_P1;HPM_P2
2021/08/04 00:01:33;;;;;;;0.90;0.80;;;23.70;55.40;;;;;;5051300;28;20064;-44
2021/08/04 00:03:59;;;;;;;1.38;1.05;;;23.70;55.40;;;;;;5051160;28;20025;-51
2021/08/04 00:06:24;;;;;;;1.50;1.00;;;23.70;55.40;;;;;;5050758;28;20021;-44
2021/08/04 00:08:50;;;;;;;0.98;0.77;;;23.70;55.50;;;;;;5050886;28;20040;-44
2021/08/04 00:11:16;;;;;;;1.30;0.85;;;23.70;55.50;;;;;;5047987;28;20096;-45
2021/08/04 00:13:41;;;;;;;1.63;1.25;;;23.60;55.50;;;;;;5050758;28;20075;-45
2021/08/04 00:16:07;;;;;;;1.10;0.95;;;23.60;55.60;;;;;;5051097;28;20025;-45
2021/08/04 00:18:33;;;;;;;1.35;0.95;;;23.60;55.50;;;;;;5051462;28;20060;-44
2021/08/04 00:20:59;;;;;;;0.93;0.82;;;23.70;55.50;;;;;;5055388;28;20024;-51
2021/08/04 00:23:24;;;;;;;2.20;0.98;;;23.70;55.50;;;;;;5053822;28;20031;-44
2021/08/04 00:25:50;;;;;;;1.70;1.10;;;23.60;55.50;;;;;;5051765;28;20056;-44
2021/08/04 00:28:15;;;;;;;1.48;0.95;;;23.70;55.60;;;;;;5050416;28;20404;-44
2021/08/04 00:30:41;;;;;;;2.05;1.10;;;23.60;56.10;;;;;;5050915;28;20453;-44
2021/08/04 00:33:07;;;;;;;1.10;0.80;;;23.70;55.50;;;;;;5050821;28;20037;-46
2021/08/04 00:35:32;;;;;;;1.63;1.08;;;23.70;55.50;;;;;;5051209;28;20029;-44
2021/08/04 00:37:58;;;;;;;1.05;0.82;;;23.70;55.50;;;;;;5058958;28;20044;-52
2021/08/04 00:40:23;;;;;;;2.05;0.90;;;23.70;55.40;;;;;;5055018;28;20079;-46
2021/08/04 00:42:49;;;;;;;1.83;1.10;;;23.60;55.30;;;;;;5055152;28;20033;-44
2021/08/04 00:45:15;;;;;;;3.53;1.20;;;23.60;55.40;;;;;;5054498;28;20033;-44
2021/08/04 00:47:42;;;;;;;1.20;0.77;;;23.60;55.40;;;;;;5060368;28;20052;-44
2021/08/04 00:50:08;;;;;;;1.70;0.90;;;23.60;55.40;;;;;;5054646;28;20365;-44
2021/08/04 00:52:34;;;;;;;1.00;0.88;;;23.60;55.30;;;;;;5059412;28;20029;-44
2021/08/04 00:55:00;;;;;;;1.90;0.93;;;23.60;55.30;;;;;;5053241;28;20040;-50
2021/08/04 00:57:26;;;;;;;1.40;1.00;;;23.60;55.30;;;;;;5054660;28;20640;-43
2021/08/04 00:59:52;;;;;;;1.05;0.88;;;23.60;55.30;;;;;;5054720;28;20509;-43
2021/08/04 01:02:21;;;;;;;4.07;0.98;;;23.60;55.30;;;;;;5053975;28;20249;-44
2021/08/04 01:05:00;;;;;;;1.10;0.90;;;23.60;55.30;;;;;;5054730;28;20075;-46
2021/08/04 01:07:36;;;;;;;1.25;1.00;;;23.60;55.20;;;;;;5054496;28;20132;-44
2021/08/04 01:10:08;;;;;;;2.08;0.90;;;23.60;55.20;;;;;;5053947;28;20033;-46
2021/08/04 01:12:41;;;;;;;1.52;1.00;;;23.60;55.20;;;;;;5054491;28;20482;-44
2021/08/04 01:15:08;;;;;;;1.58;0.90;;;23.60;55.20;;;;;;5055122;28;20025;-44
2021/08/04 01:17:38;;;;;;;1.30;1.00;;;23.60;55.20;;;;;;5055232;28;20444;-44
2021/08/04 01:20:17;;;;;;;1.15;0.90;;;23.60;55.20;;;;;;5053660;28;20431;-44
2021/08/04 01:23:01;;;;;;;1.88;1.00;;;23.70;55.20;;;;;;5053222;28;20037;-43
2021/08/04 01:25:38;;;;;;;1.45;1.13;;;23.70;55.20;;;;;;5054450;28;20037;-46
2021/08/04 01:28:23;;;;;;;1.30;0.73;;;23.70;55.20;;;;;;5053329;28;20386;-44
2021/08/04 01:30:52;;;;;;;1.63;1.05;;;23.60;55.00;;;;;;5060719;28;20041;-44
2021/08/04 01:33:20;;;;;;;2.25;0.85;;;23.70;55.70;;;;;;5053678;28;20053;-46
2021/08/04 01:35:46;;;;;;;1.33;1.20;;;23.70;55.10;;;;;;5045986;28;20079;-44
2021/08/04 01:38:15;;;;;;;1.67;1.00;;;23.70;55.10;;;;;;5053345;28;20567;-44
2021/08/04 01:40:46;;;;;;;0.93;0.80;;;23.70;55.00;;;;;;5054056;28;20029;-44
2021/08/04 01:43:12;;;;;;;1.10;0.80;;;23.70;54.90;;;;;;5053428;28;20059;-44
2021/08/04 01:45:40;;;;;;;1.08;0.80;;;23.70;54.90;;;;;;5056885;28;20433;-44
2021/08/04 01:48:07;;;;;;;1.52;0.90;;;23.70;54.90;;;;;;5051853;28;20090;-44
2021/08/04 01:50:35;;;;;;;3.10;0.90;;;23.70;54.90;;;;;;5054402;28;20032;-44
2021/08/04 01:53:01;;;;;;;1.20;0.90;;;23.70;54.80;;;;;;5053511;28;20482;-51
2021/08/04 01:55:27;;;;;;;1.83;0.80;;;23.70;54.80;;;;;;5055899;28;20039;-44
2021/08/04 01:57:52;;;;;;;2.03;1.08;;;23.70;54.90;;;;;;5054116;28;20461;-46
2021/08/04 02:00:18;;;;;;;1.05;0.82;;;23.60;54.70;;;;;;5052530;28;20190;-44
2021/08/04 02:02:44;;;;;;;0.88;0.70;;;23.70;54.80;;;;;;5054043;28;20029;-44
2021/08/04 02:05:10;;;;;;;2.08;1.00;;;23.70;54.80;;;;;;5052874;28;20029;-47
2021/08/04 02:08:00;;;;;;;1.27;0.93;;;23.70;54.80;;;;;;5053693;28;20355;-51
2021/08/04 02:10:40;;;;;;;1.30;0.90;;;23.70;54.80;;;;;;5053071;28;20111;-44
2021/08/04 02:13:22;;;;;;;1.75;1.00;;;23.70;54.70;;;;;;5052844;28;20029;-45
2021/08/04 02:15:53;;;;;;;1.10;1.00;;;23.70;54.80;;;;;;5054056;28;20033;-44
2021/08/04 02:18:24;;;;;;;1.10;0.90;;;23.70;54.70;;;;;;5051541;28;20569;-45
2021/08/04 02:20:51;;;;;;;1.00;0.90;;;23.70;54.80;;;;;;5053615;28;20037;-44
2021/08/04 02:23:23;;;;;;;1.27;0.85;;;23.70;54.80;;;;;;5051091;28;20501;-49
2021/08/04 02:25:57;;;;;;;;;;;23.70;54.70;;;;;;5053065;28;20106;-44
2021/08/04 02:28:28;;;;;;;1.00;0.70;;;23.70;54.70;;;;;;5052352;28;20346;-45
2021/08/04 02:30:54;;;;;;;1.55;0.93;;;23.70;54.50;;;;;;5053111;28;20378;-45
2021/08/04 02:33:21;;;;;;;2.28;0.98;;;23.70;54.60;;;;;;5052602;28;20028;-44
2021/08/04 02:35:48;;;;;;;1.30;0.85;;;23.70;54.80;;;;;;5053193;28;20095;-45
2021/08/04 02:38:17;;;;;;;1.80;1.10;;;23.70;54.80;;;;;;5051979;28;20090;-44
2021/08/04 02:40:43;;;;;;;1.05;0.70;;;23.70;54.90;;;;;;5052861;28;20021;-44
2021/08/04 02:43:10;;;;;;;1.27;0.88;;;23.70;54.90;;;;;;5052396;28;20037;-44
2021/08/04 02:45:37;;;;;;;1.63;1.00;;;23.70;54.90;;;;;;5052757;28;20086;-45
2021/08/04 02:48:03;;;;;;;2.67;1.08;;;23.70;54.90;;;;;;5052063;28;20045;-50
2021/08/04 02:50:32;;;;;;;0.85;0.80;;;23.70;54.80;;;;;;5054897;28;20031;-44
2021/08/04 02:52:57;;;;;;;1.58;0.73;;;23.70;54.80;;;;;;5054470;28;20028;-44
2021/08/04 02:55:23;;;;;;;1.38;1.08;;;23.70;54.80;;;;;;5054682;28;20592;-45
2021/08/04 02:57:49;;;;;;;1.48;1.00;;;23.70;54.80;;;;;;5052990;28;20090;-44
2021/08/04 03:00:15;;;;;;;1.65;1.10;;;23.70;54.80;;;;;;5051281;28;20041;-44
2021/08/04 03:02:41;;;;;;;1.50;1.13;;;23.70;54.90;;;;;;5052500;28;20044;-43
2021/08/04 03:05:07;;;;;;;1.40;1.08;;;23.70;54.90;;;;;;5051968;28;20119;-46
2021/08/04 03:07:32;;;;;;;1.50;0.80;;;23.70;54.90;;;;;;5052514;28;20041;-44
2021/08/04 03:09:58;;;;;;;1.27;1.00;;;23.70;54.90;;;;;;5052369;28;20089;-45
2021/08/04 03:12:24;;;;;;;1.73;1.40;;;23.70;54.90;;;;;;5058043;28;20040;-44
2021/08/04 03:14:50;;;;;;;1.38;1.00;;;23.70;54.90;;;;;;5052622;28;20033;-44
2021/08/04 03:17:15;;;;;;;1.65;0.80;;;23.70;54.90;;;;;;5053161;28;20033;-44
2021/08/04 03:19:41;;;;;;;1.15;0.93;;;23.70;55.00;;;;;;5052293;28;20035;-44
2021/08/04 03:22:07;;;;;;;1.25;1.00;;;23.70;54.90;;;;;;5052448;28;20053;-46
2021/08/04 03:24:32;;;;;;;1.10;0.85;;;23.70;55.00;;;;;;5051844;28;20036;-44
2021/08/04 03:26:58;;;;;;;1.13;1.00;;;23.70;55.00;;;;;;5051819;28;20056;-44
2021/08/04 03:29:24;;;;;;;1.15;0.80;;;23.70;54.90;;;;;;5051206;28;20052;-44
2021/08/04 03:31:49;;;;;;;1.77;0.80;;;23.70;54.90;;;;;;5052398;28;20498;-45
2021/08/04 03:34:15;;;;;;;1.15;0.80;;;23.70;54.90;;;;;;5051153;28;20522;-45
2021/08/04 03:36:41;;;;;;;1.75;0.70;;;23.70;54.80;;;;;;5042778;28;20481;-44
2021/08/04 03:39:07;;;;;;;1.50;0.90;;;23.70;54.90;;;;;;5051026;28;20028;-50
2021/08/04 03:41:33;;;;;;;1.13;1.00;;;23.70;54.90;;;;;;5051721;28;20036;-45
2021/08/04 03:43:58;;;;;;;1.27;0.82;;;23.70;54.90;;;;;;5051528;28;20037;-44
2021/08/04 03:46:24;;;;;;;1.42;1.10;;;23.70;54.90;;;;;;5051091;28;20021;-44
2021/08/04 03:48:50;;;;;;;2.13;0.82;;;23.70;55.00;;;;;;5051851;28;20033;-44
2021/08/04 03:51:15;;;;;;;2.25;1.13;;;23.70;54.80;;;;;;5057022;28;20035;-45
2021/08/04 03:53:41;;;;;;;1.50;0.90;;;23.60;54.70;;;;;;5051904;28;20024;-44
2021/08/04 03:56:07;;;;;;;2.47;1.00;;;23.60;54.80;;;;;;5050813;28;20505;-51
2021/08/04 03:58:32;;;;;;;1.08;0.82;;;23.70;54.80;;;;;;5051993;28;20040;-44
2021/08/04 04:00:58;;;;;;;3.58;1.10;;;23.70;54.80;;;;;;5051441;28;20087;-44
2021/08/04 04:03:23;;;;;;;1.83;1.00;;;23.60;54.70;;;;;;5050697;28;20031;-44
2021/08/04 04:05:49;;;;;;;1.45;0.93;;;23.70;54.80;;;;;;5051697;28;20482;-44
2021/08/04 04:08:15;;;;;;;2.58;1.10;;;23.60;54.70;;;;;;5050639;28;20064;-44
2021/08/04 04:10:40;;;;;;;3.78;0.90;;;23.60;54.80;;;;;;5051103;28;20482;-44
2021/08/04 04:13:06;;;;;;;1.10;1.00;;;23.60;54.80;;;;;;5050746;28;20028;-51
2021/08/04 04:15:31;;;;;;;1.45;1.10;;;23.60;54.70;;;;;;5051212;28;20037;-44
2021/08/04 04:17:57;;;;;;;1.45;1.27;;;23.60;54.70;;;;;;5054882;28;20051;-44
2021/08/04 04:20:23;;;;;;;1.40;1.15;;;23.60;54.60;;;;;;5050401;28;20035;-45
2021/08/04 04:22:48;;;;;;;1.15;0.90;;;23.60;54.70;;;;;;5053858;28;20033;-44
2021/08/04 04:25:15;;;;;;;1.35;1.00;;;23.60;54.70;;;;;;5050152;28;20103;-44
2021/08/04 04:27:43;;;;;;;2.00;1.20;;;23.60;54.70;;;;;;5051091;28;20044;-45
2021/08/04 04:30:10;;;;;;;1.15;0.95;;;23.60;54.60;;;;;;5050327;28;20032;-49
2021/08/04 04:32:36;;;;;;;3.60;0.93;;;23.50;54.60;;;;;;5051668;28;20044;-44
2021/08/04 04:35:02;;;;;;;1.48;1.00;;;23.50;54.70;;;;;;5051374;28;20124;-44
2021/08/04 04:37:28;;;;;;;2.08;0.90;;;23.40;54.60;;;;;;5050753;28;20090;-44
2021/08/04 04:39:54;;;;;;;2.13;1.02;;;23.50;54.70;;;;;;5051135;28;20029;-44
2021/08/04 04:42:20;;;;;;;1.95;1.25;;;23.50;54.60;;;;;;5050433;28;20037;-44
2021/08/04 04:44:45;;;;;;;1.30;0.90;;;23.50;54.50;;;;;;5055956;28;20033;-43
2021/08/04 04:47:11;;;;;;;3.08;1.27;;;23.50;54.60;;;;;;5050291;28;20033;-44
2021/08/04 04:49:37;;;;;;;2.08;1.13;;;23.50;54.60;;;;;;5050828;28;20482;-44
2021/08/04 04:52:03;;;;;;;1.20;1.00;;;23.50;54.60;;;;;;5051377;28;20033;-44
2021/08/04 04:54:28;;;;;;;1.20;0.80;;;23.50;54.60;;;;;;5050828;28;20051;-45
2021/08/04 04:56:54;;;;;;;1.60;1.27;;;23.50;54.50;;;;;;5050754;28;20386;-44
2021/08/04 04:59:19;;;;;;;1.52;0.98;;;23.60;54.50;;;;;;5050268;28;20128;-45
2021/08/04 05:01:45;;;;;;;1.00;0.88;;;23.60;54.50;;;;;;5050933;28;20107;-44
2021/08/04 05:04:11;;;;;;;2.20;1.20;;;23.60;54.50;;;;;;5050356;28;20411;-44
2021/08/04 05:06:36;;;;;;;2.28;1.10;;;23.60;54.40;;;;;;5050717;28;20029;-44
2021/08/04 05:09:02;;;;;;;1.52;0.93;;;23.60;54.40;;;;;;5057898;28;20075;-44
2021/08/04 05:11:28;;;;;;;4.32;1.33;;;23.60;54.50;;;;;;5049946;28;20470;-46
2021/08/04 05:13:54;;;;;;;1.00;0.88;;;23.60;54.50;;;;;;5050785;28;20029;-44
2021/08/04 05:16:20;;;;;;;1.10;0.90;;;23.50;54.40;;;;;;5056329;28;20087;-45
2021/08/04 05:18:45;;;;;;;1.23;1.00;;;23.50;54.50;;;;;;5050529;28;20479;-44
2021/08/04 05:21:11;;;;;;;1.15;0.82;;;23.50;54.50;;;;;;5051289;28;20049;-47
2021/08/04 05:23:37;;;;;;;1.58;0.98;;;23.50;54.50;;;;;;5053695;28;20021;-44
2021/08/04 05:26:03;;;;;;;1.27;1.08;;;23.50;54.50;;;;;;5054700;28;20029;-44
2021/08/04 05:28:28;;;;;;;1.25;0.98;;;23.50;54.50;;;;;;5053487;28;20041;-44
2021/08/04 05:30:54;;;;;;;2.35;1.13;;;23.60;54.50;;;;;;5054061;28;20062;-45
2021/08/04 05:33:20;;;;;;;1.30;1.00;;;23.60;54.50;;;;;;5050991;28;20048;-44
2021/08/04 05:35:45;;;;;;;3.17;0.88;;;23.60;54.50;;;;;;5052631;28;20059;-44
2021/08/04 05:38:11;;;;;;;0.80;0.70;;;23.70;54.50;;;;;;5052993;28;20036;-51
2021/08/04 05:40:36;;;;;;;1.52;0.82;;;23.70;54.50;;;;;;5053131;28;20462;-46
2021/08/04 05:43:02;;;;;;;3.35;1.10;;;23.70;54.40;;;;;;5054017;28;20024;-45
2021/08/04 05:45:28;;;;;;;3.15;1.23;;;23.70;54.60;;;;;;5053567;28;20083;-46
2021/08/04 05:47:53;;;;;;;4.57;1.25;;;23.80;54.80;;;;;;5053732;28;20036;-46
2021/08/04 05:50:19;;;;;;;2.33;0.90;;;23.80;54.80;;;;;;5053532;28;20021;-44
2021/08/04 05:52:45;;;;;;;2.58;0.80;;;23.80;54.90;;;;;;5054506;28;20025;-43
2021/08/04 05:55:11;;;;;;;2.53;1.23;;;23.90;55.20;;;;;;5053762;28;20040;-52
2021/08/04 05:57:38;;;;;;;1.38;0.82;;;23.90;55.30;;;;;;5053639;28;20059;-44
2021/08/04 06:00:05;;;;;;;1.63;1.25;;;23.90;55.70;;;;;;5053440;28;20075;-45
2021/08/04 06:02:31;;;;;;;5.57;1.20;;;23.80;56.00;;;;;;5053190;28;20108;-43
2021/08/04 06:04:56;;;;;;;12.65;1.80;;;23.80;55.10;;;;;;5053702;28;20136;-42
2021/08/04 06:07:22;;;;;;;7.47;1.48;;;23.90;55.30;;;;;;5052771;28;20119;-43
2021/08/04 06:09:48;;;;;;;2.47;1.30;;;23.90;54.40;;;;;;5053577;28;20471;-44
2021/08/04 06:12:13;;;;;;;4.65;1.85;;;23.90;54.50;;;;;;5052924;28;20032;-47
2021/08/04 06:14:39;;;;;;;2.40;1.00;;;23.90;53.50;;;;;;5053361;28;20052;-43
2021/08/04 06:17:04;;;;;;;3.47;1.10;;;23.90;54.80;;;;;;5053677;28;20070;-44
2021/08/04 06:19:30;;;;;;;3.60;1.10;;;23.90;55.40;;;;;;5052279;28;20039;-44
2021/08/04 06:21:57;;;;;;;4.65;1.75;;;23.90;55.70;;;;;;5053563;28;20017;-47
2021/08/04 06:24:23;;;;;;;5.35;1.63;;;23.80;54.80;;;;;;5052760;28;20109;-44
2021/08/04 06:26:49;;;;;;;5.00;1.33;;;23.80;55.30;;;;;;5049728;28;20111;-50
2021/08/04 06:29:15;;;;;;;5.30;1.20;;;23.80;55.50;;;;;;5050960;28;20117;-44
2021/08/04 06:31:40;;;;;;;2.28;1.02;;;23.80;55.20;;;;;;5072130;28;20037;-44
2021/08/04 06:34:06;;;;;;;4.07;1.20;;;23.90;54.50;;;;;;5052400;28;20098;-44
2021/08/04 06:36:31;;;;;;;3.47;1.13;;;23.90;54.20;;;;;;5052323;28;20099;-44
2021/08/04 06:38:57;;;;;;;2.47;1.30;;;23.80;54.00;;;;;;5053096;28;20374;-44
2021/08/04 06:41:23;;;;;;;1.70;1.20;;;23.80;54.40;;;;;;5052152;28;20450;-44
2021/08/04 06:43:48;;;;;;;2.42;0.98;;;23.80;54.30;;;;;;5052272;28;20033;-47
2021/08/04 06:46:14;;;;;;;3.80;1.27;;;23.80;55.30;;;;;;5051428;28;20025;-44
2021/08/04 06:48:40;;;;;;;3.17;1.27;;;23.80;54.60;;;;;;5053318;28;20069;-44
2021/08/04 06:51:06;;;;;;;1.92;1.25;;;23.80;54.80;;;;;;5053661;28;20076;-45
2021/08/04 06:53:32;;;;;;;3.03;1.30;;;23.80;54.70;;;;;;5052583;28;20446;-45
2021/08/04 06:55:57;;;;;;;7.47;1.95;;;23.80;54.30;;;;;;5057238;28;20029;-44
2021/08/04 06:58:23;;;;;;;4.50;1.23;;;23.80;54.40;;;;;;5072585;28;20021;-44
2021/08/04 07:00:49;;;;;;;1.48;1.08;;;23.80;54.70;;;;;;5073339;28;20064;-45
2021/08/04 07:03:14;;;;;;;5.63;1.48;;;23.70;54.90;;;;;;5072266;28;20036;-44
2021/08/04 07:05:40;;;;;;;3.10;1.30;;;23.70;54.30;;;;;;5072619;28;20032;-45
2021/08/04 07:08:09;;;;;;;3.03;1.30;;;23.80;53.70;;;;;;5073024;28;20032;-45
2021/08/04 07:10:34;;;;;;;2.58;1.35;;;23.80;53.70;;;;;;5054711;28;20078;-44
2021/08/04 07:13:01;;;;;;;2.90;1.55;;;23.80;53.10;;;;;;5053148;28;20036;-46
2021/08/04 07:15:27;;;;;;;4.07;1.45;;;23.80;52.80;;;;;;5052681;28;20079;-45
2021/08/04 07:17:52;;;;;;;2.72;1.20;;;23.80;53.50;;;;;;5053464;28;20029;-45
2021/08/04 07:20:21;;;;;;;1.88;1.42;;;23.80;53.10;;;;;;5052161;28;20496;-45
2021/08/04 07:22:48;;;;;;;2.53;1.50;;;23.80;53.30;;;;;;5052951;28;20086;-45
2021/08/04 07:25:15;;;;;;;2.70;1.63;;;23.80;54.10;;;;;;5051159;28;20075;-45
2021/08/04 07:27:41;;;;;;;2.83;1.20;;;23.80;54.40;;;;;;5050275;28;20486;-44
2021/08/04 07:30:09;;;;;;;2.08;1.20;;;23.80;54.50;;;;;;5052263;28;20029;-45
2021/08/04 07:32:36;;;;;;;3.97;1.27;;;23.90;54.50;;;;;;5051952;28;20170;-45
2021/08/04 07:35:02;;;;;;;4.80;2.28;;;23.80;54.40;;;;;;5045972;28;20017;-45
2021/08/04 07:37:30;;;;;;;2.25;1.27;;;23.90;54.40;;;;;;5051746;28;20025;-46
2021/08/04 07:39:56;;;;;;;2.40;1.20;;;23.90;54.40;;;;;;5051853;28;20378;-45
2021/08/04 07:42:23;;;;;;;1.95;1.10;;;23.90;54.40;;;;;;5050989;28;20033;-44
2021/08/04 07:44:49;;;;;;;1.65;1.20;;;23.90;54.40;;;;;;5052132;28;20031;-44
2021/08/04 07:47:15;;;;;;;2.13;1.25;;;23.90;54.40;;;;;;5050899;28;20116;-45
2021/08/04 07:49:41;;;;;;;3.25;1.40;;;23.90;54.40;;;;;;5051378;28;20021;-45
2021/08/04 07:52:07;;;;;;;1.58;1.13;;;23.90;54.50;;;;;;5051917;28;20074;-45
2021/08/04 07:54:34;;;;;;;2.08;1.30;;;23.90;54.50;;;;;;5050597;28;20036;-45
2021/08/04 07:57:00;;;;;;;2.97;1.20;;;23.90;54.50;;;;;;5052325;28;20044;-44
2021/08/04 07:59:26;;;;;;;3.05;1.45;;;23.90;54.50;;;;;;5050279;28;20045;-45
2021/08/04 08:01:52;;;;;;;1.40;1.10;;;23.90;54.50;;;;;;5051362;28;20033;-45
2021/08/04 08:04:17;;;;;;;2.47;1.10;;;23.90;54.40;;;;;;5050463;28;20025;-45
2021/08/04 08:06:43;;;;;;;1.98;1.40;;;23.90;54.30;;;;;;5051306;28;20040;-45
2021/08/04 08:09:11;;;;;;;3.05;1.10;;;23.90;55.10;;;;;;5051330;28;20048;-45
2021/08/04 08:11:37;;;;;;;1.83;1.35;;;23.90;54.50;;;;;;5050519;28;20467;-45
2021/08/04 08:14:03;;;;;;;2.03;1.00;;;23.90;54.30;;;;;;5051593;28;20036;-45
2021/08/04 08:16:29;;;;;;;1.92;1.00;;;23.90;54.10;;;;;;5051147;28;20032;-44
2021/08/04 08:18:55;;;;;;;1.80;1.00;;;23.90;54.20;;;;;;5050862;28;20036;-46
2021/08/04 08:21:23;;;;;;;5.45;1.73;;;23.90;54.40;;;;;;5049876;28;20025;-44
2021/08/04 08:23:50;;;;;;;2.75;1.15;;;23.90;54.40;;;;;;5049750;28;20025;-44
2021/08/04 08:26:17;;;;;;;1.42;1.10;;;23.90;54.40;;;;;;5055037;28;20454;-53
2021/08/04 08:28:42;;;;;;;1.55;1.08;;;23.90;54.40;;;;;;5050797;28;20033;-45
2021/08/04 08:31:08;;;;;;;1.45;1.15;;;23.90;54.50;;;;;;5050133;28;20035;-44
2021/08/04 08:33:34;;;;;;;1.58;1.10;;;23.90;54.50;;;;;;5049651;28;20025;-46
2021/08/04 08:35:59;;;;;;;1.45;1.10;;;23.90;54.50;;;;;;5050850;28;20037;-44
2021/08/04 08:38:25;;;;;;;1.55;1.20;;;23.90;54.60;;;;;;5050064;28;20040;-45
2021/08/04 08:40:51;;;;;;;1.90;1.00;;;23.90;55.20;;;;;;5050480;28;20025;-45
2021/08/04 08:43:16;;;;;;;1.50;1.08;;;23.90;54.60;;;;;;5050181;28;20070;-53
2021/08/04 08:45:43;;;;;;;1.60;1.02;;;23.90;54.60;;;;;;5050729;28;20025;-45
2021/08/04 08:48:09;;;;;;;2.33;1.33;;;23.90;54.50;;;;;;5050271;28;20082;-45
2021/08/04 08:50:37;;;;;;;1.50;1.20;;;23.90;54.60;;;;;;5049681;28;20037;-49
2021/08/04 08:53:03;;;;;;;2.97;1.35;;;23.90;54.50;;;;;;5042927;28;20029;-45
2021/08/04 08:55:32;;;;;;;1.42;0.88;;;23.90;54.60;;;;;;5049917;28;20150;-44
2021/08/04 08:57:57;;;;;;;2.90;1.20;;;23.90;54.70;;;;;;5050551;28;20466;-44
2021/08/04 09:00:23;;;;;;;4.03;1.48;;;23.90;54.70;;;;;;5053158;28;20045;-45
2021/08/04 09:02:49;;;;;;;1.42;1.15;;;23.90;54.60;;;;;;5054647;28;20493;-45
2021/08/04 09:05:16;;;;;;;2.22;1.10;;;23.90;54.60;;;;;;5054138;28;20025;-45
2021/08/04 09:07:44;;;;;;;2.08;1.23;;;23.90;54.60;;;;;;5054639;28;20079;-45
2021/08/04 09:10:19;;;;;;;1.42;1.20;;;23.90;54.40;;;;;;5055201;28;20078;-45
2021/08/04 09:12:57;;;;;;;2.03;0.95;;;23.90;54.40;;;;;;5055323;28;20115;-45
2021/08/04 09:15:35;;;;;;;2.92;1.30;;;23.90;54.40;;;;;;5052342;28;20032;-45
2021/08/04 09:18:09;;;;;;;2.10;1.20;;;23.90;54.50;;;;;;5054923;28;20040;-45
2021/08/04 09:20:45;;;;;;;1.92;1.40;;;23.90;54.50;;;;;;5054365;28;20025;-45
2021/08/04 09:23:16;;;;;;;1.90;1.27;;;23.90;54.30;;;;;;5055370;28;20051;-44
2021/08/04 09:26:05;;;;;;;3.95;1.20;;;24.00;54.30;;;;;;5056519;28;20028;-45
2021/08/04 09:28:49;;;;;;;1.63;1.05;;;23.90;54.40;;;;;;5074313;28;20127;-45
2021/08/04 09:31:14;;;;;;;3.05;1.38;;;23.90;54.40;;;;;;5074866;28;20032;-45
2021/08/04 09:33:40;;;;;;;1.38;1.00;;;23.90;54.40;;;;;;5073930;28;20024;-45
2021/08/04 09:36:06;;;;;;;1.70;1.13;;;24.00;54.60;;;;;;5074596;28;20401;-45
2021/08/04 09:38:32;;;;;;;1.67;1.10;;;23.90;54.10;;;;;;5073789;28;20028;-44
2021/08/04 09:41:16;;;;;;;1.63;1.13;;;24.00;54.00;;;;;;5074323;28;20020;-46
2021/08/04 09:43:50;;;;;;;1.52;1.08;;;24.00;54.20;;;;;;5074195;28;20036;-44
2021/08/04 09:46:26;;;;;;;1.90;1.20;;;23.90;54.50;;;;;;5074447;28;20054;-53
2021/08/04 09:48:53;;;;;;;2.80;1.20;;;23.90;54.40;;;;;;5074189;28;20036;-45
2021/08/04 09:51:19;;;;;;;1.95;1.38;;;23.90;54.30;;;;;;5073562;28;20059;-53
2021/08/04 09:53:49;;;;;;;1.55;1.00;;;24.00;54.30;;;;;;5055834;28;20025;-45
2021/08/04 09:56:16;;;;;;;3.72;1.08;;;23.90;54.10;;;;;;5060337;28;20017;-44
2021/08/04 09:58:44;;;;;;;1.30;1.02;;;23.90;54.10;;;;;;5073278;28;20473;-44
2021/08/04 10:01:12;;;;;;;1.50;1.20;;;23.90;54.20;;;;;;5074345;28;20048;-44
2021/08/04 10:03:38;;;;;;;1.83;1.25;;;23.90;54.00;;;;;;5072448;28;20355;-44
2021/08/04 10:06:04;;;;;;;3.55;1.58;;;23.90;53.80;;;;;;5074366;28;20051;-45
2021/08/04 10:08:29;;;;;;;3.72;1.52;;;23.90;53.80;;;;;;5072552;28;20511;-45
2021/08/04 10:10:56;;;;;;;3.33;1.33;;;23.90;53.80;;;;;;5053387;28;20024;-44
2021/08/04 10:13:28;;;;;;;1.48;1.17;;;23.90;53.90;;;;;;5053462;28;20021;-44
2021/08/04 10:15:58;;;;;;;3.55;1.30;;;23.90;54.10;;;;;;5054134;28;20485;-44
2021/08/04 10:18:30;;;;;;;3.42;1.38;;;24.00;54.50;;;;;;5052512;28;20033;-43
2021/08/04 10:21:07;;;;;;;2.70;1.50;;;23.90;54.40;;;;;;5052894;28;20051;-43
2021/08/04 10:23:33;;;;;;;2.22;1.42;;;23.90;54.20;;;;;;5054416;28;20112;-42
2021/08/04 10:26:00;;;;;;;25.05;2.78;;;24.00;54.50;;;;;;5057608;28;20020;-42
2021/08/04 10:28:28;;;;;;;2.05;1.33;;;24.00;54.60;;;;;;5072902;28;20381;-45
2021/08/04 10:30:54;;;;;;;2.72;1.50;;;24.00;54.50;;;;;;5073298;28;20432;-43
2021/08/04 10:33:20;;;;;;;4.38;1.50;;;24.00;54.30;;;;;;5073250;28;20389;-45
2021/08/04 10:35:57;;;;;;;3.20;1.60;;;24.00;53.80;;;;;;5073469;28;20032;-46
2021/08/04 10:38:26;;;;;;;2.58;1.38;;;23.90;54.00;;;;;;5072914;28;20033;-43
2021/08/04 10:41:21;;;;;;;4.32;1.50;;;23.90;53.90;;;;;;5073720;28;20039;-44
2021/08/04 10:43:52;;;;;;;2.65;1.30;;;23.90;54.20;;;;;;5073614;28;20028;-43
2021/08/04 10:46:29;;;;;;;4.82;1.60;;;23.90;53.60;;;;;;5073743;28;20024;-49
2021/08/04 10:48:58;;;;;;;2.75;1.23;;;23.90;53.80;;;;;;5073664;28;20036;-43
2021/08/04 10:51:24;;;;;;;6.03;1.55;;;24.00;53.50;;;;;;5072378;28;20068;-43
2021/08/04 10:54:02;;;;;;;2.58;1.58;;;23.90;53.40;;;;;;5073128;28;20038;-44
2021/08/04 10:56:34;;;;;;;2.80;1.10;;;24.00;53.20;;;;;;5071628;28;20040;-43
2021/08/04 10:59:11;;;;;;;3.88;1.33;;;24.00;53.30;;;;;;5072079;28;20029;-42
2021/08/04 11:01:53;;;;;;;2.80;1.52;;;24.00;53.10;;;;;;5072107;28;20031;-43
2021/08/04 11:04:27;;;;;;;3.30;1.35;;;24.00;53.00;;;;;;5072702;28;20033;-47
2021/08/04 11:07:09;;;;;;;1.90;1.30;;;24.00;53.10;;;;;;5072503;28;20496;-44
2021/08/04 11:09:39;;;;;;;2.47;1.35;;;24.00;53.10;;;;;;5062928;28;20025;-43
2021/08/04 11:12:12;;;;;;;3.92;1.52;;;24.00;52.90;;;;;;5052988;28;20072;-43
2021/08/04 11:15:00;;;;;;;1.60;1.40;;;24.00;53.20;;;;;;5051808;28;20033;-44
2021/08/04 11:17:28;;;;;;;4.85;1.45;;;24.00;53.10;;;;;;5051613;28;20032;-44
2021/08/04 11:19:57;;;;;;;2.25;1.10;;;24.00;53.00;;;;;;5052636;28;20421;-44
2021/08/04 11:22:31;;;;;;;2.75;1.30;;;24.00;53.40;;;;;;5052071;28;20025;-52
2021/08/04 11:25:00;;;;;;;2.08;1.60;;;23.90;52.60;;;;;;5053110;28;20021;-45
2021/08/04 11:27:33;;;;;;;1.83;1.15;;;23.90;53.50;;;;;;5067122;28;20035;-44
2021/08/04 11:30:00;;;;;;;1.40;1.10;;;24.00;53.50;;;;;;5072159;28;20036;-44
2021/08/04 11:32:30;;;;;;;3.10;1.30;;;24.00;53.30;;;;;;5071740;28;20078;-48
2021/08/04 11:34:57;;;;;;;2.60;1.20;;;24.00;53.50;;;;;;5069222;28;20818;-49
2021/08/04 11:37:25;;;;;;;4.82;1.30;;;24.00;53.50;;;;;;5051960;28;20041;-50
2021/08/04 11:40:01;;;;;;;1.88;1.30;;;24.00;53.70;;;;;;5052601;28;20028;-44
2021/08/04 11:42:28;;;;;;;2.78;1.75;;;24.10;53.70;;;;;;5051385;28;20029;-43
2021/08/04 11:45:01;;;;;;;2.15;1.30;;;24.10;53.90;;;;;;5052521;28;20111;-44
2021/08/04 11:47:27;;;;;;;1.88;1.10;;;24.00;53.90;;;;;;5051083;28;20080;-44
2021/08/04 11:49:52;;;;;;;2.08;1.33;;;24.10;54.10;;;;;;5052326;28;20057;-44
2021/08/04 11:52:21;;;;;;;1.65;1.10;;;24.10;54.10;;;;;;5051842;28;20061;-45
2021/08/04 11:54:53;;;;;;;1.92;1.10;;;24.10;54.20;;;;;;5051577;28;20037;-43
2021/08/04 11:57:24;;;;;;;;;;;24.10;54.20;;;;;;5067216;28;20423;-43
2021/08/04 11:59:52;;;;;;;2.83;1.10;;;24.10;54.40;;;;;;5072197;28;19942;-45
2021/08/04 12:02:21;;;;;;;1.35;1.08;;;24.10;54.40;;;;;;5072292;28;20274;-43
2021/08/04 12:04:54;;;;;;;2.78;1.27;;;24.10;54.50;;;;;;5071817;28;20140;-43
2021/08/04 12:07:25;;;;;;;1.92;1.23;;;24.10;54.40;;;;;;5071944;28;20044;-44
2021/08/04 12:09:52;;;;;;;2.67;1.30;;;24.10;54.50;;;;;;5053624;28;20029;-45
2021/08/04 12:12:22;;;;;;;2.65;1.02;;;24.10;54.50;;;;;;5051827;28;20529;-47
2021/08/04 12:14:48;;;;;;;2.75;1.10;;;24.10;54.50;;;;;;5044577;28;20032;-44
2021/08/04 12:17:28;;;;;;;1.80;1.17;;;24.10;54.50;;;;;;5052321;28;20386;-46
2021/08/04 12:19:55;;;;;;;2.72;1.30;;;24.10;54.50;;;;;;5051743;28;20032;-46
2021/08/04 12:22:23;;;;;;;2.08;1.40;;;24.20;54.60;;;;;;5051526;28;20029;-44
2021/08/04 12:24:52;;;;;;;1.85;1.23;;;24.10;54.60;;;;;;5051290;28;20028;-44
2021/08/04 12:27:42;;;;;;;2.60;1.30;;;24.10;54.60;;;;;;5065891;28;20557;-45
2021/08/04 12:30:25;;;;;;;3.47;1.25;;;24.10;54.70;;;;;;5071348;28;20064;-46
2021/08/04 12:35:47;;;;;;;2.28;1.15;;;24.10;54.60;;;;;;5070816;28;20063;-45
2021/08/04 12:38:21;;;;;;;2.08;1.30;;;24.10;54.60;;;;;;5071766;28;20090;-44
2021/08/04 12:40:49;;;;;;;3.22;1.10;;;24.10;54.60;;;;;;5070959;28;20742;-45
2021/08/04 12:43:16;;;;;;;1.52;1.13;;;24.10;54.60;;;;;;5071670;28;20090;-44
2021/08/04 12:45:55;;;;;;;3.22;1.63;;;24.10;54.50;;;;;;5069774;28;20028;-44
2021/08/04 12:48:40;;;;;;;1.63;1.38;;;24.10;54.50;;;;;;5071727;28;20032;-46
2021/08/04 12:51:12;;;;;;;1.20;1.10;;;24.10;54.50;;;;;;5071678;28;20032;-46
2021/08/04 12:53:39;;;;;;;1.10;0.90;;;24.10;54.50;;;;;;5070725;28;20492;-44
2021/08/04 12:56:07;;;;;;;1.98;1.25;;;24.10;54.50;;;;;;5071031;28;20020;-44